HTZA

Abeid Amani Karume International Airport

Zanzibar, Tanzania
METAR HTZA 181400Z 14008KT 9999 FEW018 28/21 Q1015 NOSIG
Observed Flight Rules
Aug-18 @ 14:00 UTC (53 minutes ago) Visual Flight Rules
Wind Visibility Clouds
140° at 8 knots 10,000+ meters
  • Few at 1,800' AGL
Temperatures Readings
Current 28°C / 82°F
Dewpoint 21°C / 70°F
Humidity 66%
Altimeter 29.97" Hg
Pressure 1015 hPa
Elevation 15
METAR HTZA 181400Z 14008KT 9999 FEW018 28/21 Q1015 NOSIG
Observed Flight Rules
Aug-18 @ 14:00 UTC
(53 minutes ago)
VFR
Wind Visibility
140° at 8 knots 10,000+ meters
Clouds
  • Few at 1,800' AGL
Temperature Dewpoint
28°C / 82°F 21°C / 70°F
Humidity Altimeter Pressure
66% 29.97" Hg 1015 hPa